sensor_id;sensor_type;location;lat;lon;timestamp;P1;durP1;ratioP1;P2;durP2;ratioP2
12165;SDS011;6146;48.128;11.476;2022-10-31T00:01:20;10.87;;;6.20;;
12165;SDS011;6146;48.128;11.476;2022-10-31T00:03:51;8.80;;;5.93;;
12165;SDS011;6146;48.128;11.476;2022-10-31T00:06:17;10.90;;;5.90;;
12165;SDS011;6146;48.128;11.476;2022-10-31T00:08:44;9.40;;;6.03;;
12165;SDS011;6146;48.128;11.476;2022-10-31T00:11:17;11.60;;;5.70;;
12165;SDS011;6146;48.128;11.476;2022-10-31T00:13:42;7.90;;;5.27;;
12165;SDS011;6146;48.128;11.476;2022-10-31T00:16:18;10.27;;;6.10;;
12165;SDS011;6146;48.128;11.476;2022-10-31T00:18:52;11.90;;;5.03;;
12165;SDS011;6146;48.128;11.476;2022-10-31T00:21:22;8.60;;;5.47;;
12165;SDS011;6146;48.128;11.476;2022-10-31T00:23:49;10.53;;;5.47;;
12165;SDS011;6146;48.128;11.476;2022-10-31T00:26:14;8.37;;;5.40;;
12165;SDS011;6146;48.128;11.476;2022-10-31T00:28:40;7.17;;;5.27;;
12165;SDS011;6146;48.128;11.476;2022-10-31T00:31:07;8.37;;;4.70;;
12165;SDS011;6146;48.128;11.476;2022-10-31T00:33:34;9.83;;;6.30;;
12165;SDS011;6146;48.128;11.476;2022-10-31T00:36:03;9.07;;;6.03;;
12165;SDS011;6146;48.128;11.476;2022-10-31T00:38:29;12.67;;;5.50;;
12165;SDS011;6146;48.128;11.476;2022-10-31T00:40:55;7.83;;;5.80;;
12165;SDS011;6146;48.128;11.476;2022-10-31T00:43:21;8.40;;;5.57;;
12165;SDS011;6146;48.128;11.476;2022-10-31T00:45:46;9.67;;;4.93;;
12165;SDS011;6146;48.128;11.476;2022-10-31T00:48:12;8.33;;;5.57;;
12165;SDS011;6146;48.128;11.476;2022-10-31T00:50:38;10.47;;;5.50;;
12165;SDS011;6146;48.128;11.476;2022-10-31T00:53:04;9.07;;;5.53;;
12165;SDS011;6146;48.128;11.476;2022-10-31T00:55:30;8.03;;;5.03;;
12165;SDS011;6146;48.128;11.476;2022-10-31T00:57:56;9.37;;;5.73;;
12165;SDS011;6146;48.128;11.476;2022-10-31T01:00:21;7.73;;;5.27;;
12165;SDS011;6146;48.128;11.476;2022-10-31T01:02:47;9.97;;;5.83;;
12165;SDS011;6146;48.128;11.476;2022-10-31T01:05:12;10.77;;;5.23;;
12165;SDS011;6146;48.128;11.476;2022-10-31T01:07:39;10.03;;;5.60;;
12165;SDS011;6146;48.128;11.476;2022-10-31T01:10:06;6.67;;;4.70;;
12165;SDS011;6146;48.128;11.476;2022-10-31T01:12:36;12.83;;;5.37;;
12165;SDS011;6146;48.128;11.476;2022-10-31T01:15:05;9.37;;;5.17;;
12165;SDS011;6146;48.128;11.476;2022-10-31T01:17:32;7.37;;;5.40;;
12165;SDS011;6146;48.128;11.476;2022-10-31T01:19:57;9.80;;;5.03;;
12165;SDS011;6146;48.128;11.476;2022-10-31T01:22:23;7.37;;;5.10;;
12165;SDS011;6146;48.128;11.476;2022-10-31T01:24:49;10.57;;;5.30;;
12165;SDS011;6146;48.128;11.476;2022-10-31T01:27:14;7.70;;;5.03;;
12165;SDS011;6146;48.128;11.476;2022-10-31T01:29:40;10.20;;;5.00;;
12165;SDS011;6146;48.128;11.476;2022-10-31T01:32:05;8.73;;;5.20;;
12165;SDS011;6146;48.128;11.476;2022-10-31T01:34:31;9.17;;;4.93;;
12165;SDS011;6146;48.128;11.476;2022-10-31T01:36:56;10.13;;;5.07;;
12165;SDS011;6146;48.128;11.476;2022-10-31T01:39:22;8.07;;;5.20;;
12165;SDS011;6146;48.128;11.476;2022-10-31T01:41:49;7.87;;;5.13;;
12165;SDS011;6146;48.128;11.476;2022-10-31T01:49:24;8.13;;;4.43;;
12165;SDS011;6146;48.128;11.476;2022-10-31T01:52:10;10.00;;;5.30;;
12165;SDS011;6146;48.128;11.476;2022-10-31T01:55:12;9.10;;;4.90;;
12165;SDS011;6146;48.128;11.476;2022-10-31T01:57:53;6.13;;;4.57;;
12165;SDS011;6146;48.128;11.476;2022-10-31T02:00:23;5.87;;;4.53;;
12165;SDS011;6146;48.128;11.476;2022-10-31T02:02:49;8.90;;;5.43;;
12165;SDS011;6146;48.128;11.476;2022-10-31T02:05:17;8.40;;;4.80;;
12165;SDS011;6146;48.128;11.476;2022-10-31T02:08:01;8.00;;;4.73;;
12165;SDS011;6146;48.128;11.476;2022-10-31T02:10:34;8.83;;;5.27;;
12165;SDS011;6146;48.128;11.476;2022-10-31T02:13:02;7.47;;;4.93;;
12165;SDS011;6146;48.128;11.476;2022-10-31T02:15:30;11.67;;;4.70;;
12165;SDS011;6146;48.128;11.476;2022-10-31T02:17:57;7.97;;;5.03;;
12165;SDS011;6146;48.128;11.476;2022-10-31T02:20:24;8.03;;;4.20;;
12165;SDS011;6146;48.128;11.476;2022-10-31T02:34:12;9.30;;;4.80;;
12165;SDS011;6146;48.128;11.476;2022-10-31T02:36:52;8.47;;;4.80;;
12165;SDS011;6146;48.128;11.476;2022-10-31T02:39:21;7.67;;;4.83;;
12165;SDS011;6146;48.128;11.476;2022-10-31T02:47:24;9.43;;;4.40;;
12165;SDS011;6146;48.128;11.476;2022-10-31T02:49:57;8.83;;;4.67;;
12165;SDS011;6146;48.128;11.476;2022-10-31T02:52:32;7.27;;;4.37;;
12165;SDS011;6146;48.128;11.476;2022-10-31T02:55:09;7.17;;;4.73;;
12165;SDS011;6146;48.128;11.476;2022-10-31T02:58:07;6.70;;;4.43;;
12165;SDS011;6146;48.128;11.476;2022-10-31T03:00:37;9.93;;;5.33;;
12165;SDS011;6146;48.128;11.476;2022-10-31T03:06:03;8.67;;;5.17;;
12165;SDS011;6146;48.128;11.476;2022-10-31T03:11:14;8.07;;;5.13;;
12165;SDS011;6146;48.128;11.476;2022-10-31T03:13:45;8.43;;;5.40;;
12165;SDS011;6146;48.128;11.476;2022-10-31T03:16:16;7.97;;;5.27;;
12165;SDS011;6146;48.128;11.476;2022-10-31T03:18:52;7.73;;;4.90;;
12165;SDS011;6146;48.128;11.476;2022-10-31T03:21:40;6.10;;;4.57;;
12165;SDS011;6146;48.128;11.476;2022-10-31T03:24:10;5.70;;;4.73;;
12165;SDS011;6146;48.128;11.476;2022-10-31T03:26:39;6.47;;;4.47;;
12165;SDS011;6146;48.128;11.476;2022-10-31T03:29:10;5.93;;;4.33;;
12165;SDS011;6146;48.128;11.476;2022-10-31T03:31:53;6.87;;;4.77;;
12165;SDS011;6146;48.128;11.476;2022-10-31T03:34:22;7.80;;;5.50;;
12165;SDS011;6146;48.128;11.476;2022-10-31T03:36:49;7.90;;;4.83;;
12165;SDS011;6146;48.128;11.476;2022-10-31T03:39:17;5.93;;;4.87;;
12165;SDS011;6146;48.128;11.476;2022-10-31T03:41:48;6.90;;;4.93;;
12165;SDS011;6146;48.128;11.476;2022-10-31T03:44:19;9.20;;;4.60;;
12165;SDS011;6146;48.128;11.476;2022-10-31T03:46:47;7.10;;;4.77;;
12165;SDS011;6146;48.128;11.476;2022-10-31T03:49:13;7.40;;;4.90;;
12165;SDS011;6146;48.128;11.476;2022-10-31T03:59:42;8.50;;;4.87;;
12165;SDS011;6146;48.128;11.476;2022-10-31T04:02:21;8.47;;;4.73;;
12165;SDS011;6146;48.128;11.476;2022-10-31T04:04:50;7.07;;;5.80;;
12165;SDS011;6146;48.128;11.476;2022-10-31T04:07:17;10.63;;;5.90;;
12165;SDS011;6146;48.128;11.476;2022-10-31T04:09:44;10.53;;;4.80;;
12165;SDS011;6146;48.128;11.476;2022-10-31T04:12:13;9.00;;;4.80;;
12165;SDS011;6146;48.128;11.476;2022-10-31T04:14:41;7.40;;;4.97;;
12165;SDS011;6146;48.128;11.476;2022-10-31T04:17:11;6.53;;;4.77;;
12165;SDS011;6146;48.128;11.476;2022-10-31T04:19:40;9.23;;;5.17;;
12165;SDS011;6146;48.128;11.476;2022-10-31T04:22:06;7.37;;;5.00;;
12165;SDS011;6146;48.128;11.476;2022-10-31T04:24:31;8.90;;;5.23;;
12165;SDS011;6146;48.128;11.476;2022-10-31T04:26:57;8.83;;;5.20;;
12165;SDS011;6146;48.128;11.476;2022-10-31T04:29:23;7.27;;;5.40;;
12165;SDS011;6146;48.128;11.476;2022-10-31T04:31:48;7.50;;;4.90;;
12165;SDS011;6146;48.128;11.476;2022-10-31T04:34:14;8.67;;;5.73;;
12165;SDS011;6146;48.128;11.476;2022-10-31T04:36:39;7.50;;;4.97;;
12165;SDS011;6146;48.128;11.476;2022-10-31T04:39:05;7.20;;;5.60;;
12165;SDS011;6146;48.128;11.476;2022-10-31T04:41:30;7.63;;;4.93;;
12165;SDS011;6146;48.128;11.476;2022-10-31T04:43:56;8.23;;;5.30;;
12165;SDS011;6146;48.128;11.476;2022-10-31T04:46:21;9.73;;;5.63;;
12165;SDS011;6146;48.128;11.476;2022-10-31T04:48:47;9.53;;;6.10;;
12165;SDS011;6146;48.128;11.476;2022-10-31T04:51:13;8.13;;;5.23;;
12165;SDS011;6146;48.128;11.476;2022-10-31T04:53:38;7.07;;;4.90;;
12165;SDS011;6146;48.128;11.476;2022-10-31T04:56:04;8.03;;;5.37;;
12165;SDS011;6146;48.128;11.476;2022-10-31T04:58:30;6.27;;;5.10;;
12165;SDS011;6146;48.128;11.476;2022-10-31T05:00:55;7.73;;;4.93;;
12165;SDS011;6146;48.128;11.476;2022-10-31T05:03:21;9.23;;;5.13;;
12165;SDS011;6146;48.128;11.476;2022-10-31T05:05:47;6.27;;;5.10;;
12165;SDS011;6146;48.128;11.476;2022-10-31T05:08:13;8.90;;;5.23;;
12165;SDS011;6146;48.128;11.476;2022-10-31T05:10:39;9.60;;;5.53;;
12165;SDS011;6146;48.128;11.476;2022-10-31T05:13:05;7.07;;;5.40;;
12165;SDS011;6146;48.128;11.476;2022-10-31T05:15:31;9.83;;;5.50;;
12165;SDS011;6146;48.128;11.476;2022-10-31T05:17:57;7.27;;;5.63;;
12165;SDS011;6146;48.128;11.476;2022-10-31T05:20:24;8.43;;;5.63;;
12165;SDS011;6146;48.128;11.476;2022-10-31T05:22:52;7.87;;;5.40;;
12165;SDS011;6146;48.128;11.476;2022-10-31T05:25:21;7.40;;;5.40;;
12165;SDS011;6146;48.128;11.476;2022-10-31T05:27:49;8.03;;;5.80;;
12165;SDS011;6146;48.128;11.476;2022-10-31T05:30:21;9.33;;;5.43;;
12165;SDS011;6146;48.128;11.476;2022-10-31T05:32:49;6.40;;;5.07;;
12165;SDS011;6146;48.128;11.476;2022-10-31T05:35:16;7.70;;;5.77;;
12165;SDS011;6146;48.128;11.476;2022-10-31T05:37:44;9.50;;;5.27;;
12165;SDS011;6146;48.128;11.476;2022-10-31T05:40:10;8.60;;;6.00;;
12165;SDS011;6146;48.128;11.476;2022-10-31T05:42:40;8.93;;;6.07;;
12165;SDS011;6146;48.128;11.476;2022-10-31T05:45:07;6.27;;;5.20;;
12165;SDS011;6146;48.128;11.476;2022-10-31T05:47:33;12.90;;;5.63;;
12165;SDS011;6146;48.128;11.476;2022-10-31T05:49:59;10.07;;;5.57;;
12165;SDS011;6146;48.128;11.476;2022-10-31T05:52:25;7.97;;;5.13;;
12165;SDS011;6146;48.128;11.476;2022-10-31T05:54:50;11.20;;;6.03;;
12165;SDS011;6146;48.128;11.476;2022-10-31T05:57:16;10.03;;;6.17;;
12165;SDS011;6146;48.128;11.476;2022-10-31T05:59:41;7.77;;;5.83;;
12165;SDS011;6146;48.128;11.476;2022-10-31T06:02:07;9.67;;;5.37;;
12165;SDS011;6146;48.128;11.476;2022-10-31T06:04:32;9.60;;;5.20;;
12165;SDS011;6146;48.128;11.476;2022-10-31T06:06:58;10.30;;;5.43;;
12165;SDS011;6146;48.128;11.476;2022-10-31T06:09:23;9.13;;;5.30;;
12165;SDS011;6146;48.128;11.476;2022-10-31T06:11:49;9.20;;;5.50;;
12165;SDS011;6146;48.128;11.476;2022-10-31T06:14:14;7.97;;;5.70;;
12165;SDS011;6146;48.128;11.476;2022-10-31T06:16:40;9.33;;;5.70;;
12165;SDS011;6146;48.128;11.476;2022-10-31T06:19:05;10.40;;;5.80;;
12165;SDS011;6146;48.128;11.476;2022-10-31T06:21:31;7.47;;;5.40;;
12165;SDS011;6146;48.128;11.476;2022-10-31T06:23:57;10.47;;;5.90;;
12165;SDS011;6146;48.128;11.476;2022-10-31T06:26:22;7.77;;;5.20;;
12165;SDS011;6146;48.128;11.476;2022-10-31T06:28:48;11.60;;;5.77;;
12165;SDS011;6146;48.128;11.476;2022-10-31T06:31:13;7.80;;;5.43;;
12165;SDS011;6146;48.128;11.476;2022-10-31T06:33:40;7.47;;;5.23;;
12165;SDS011;6146;48.128;11.476;2022-10-31T06:36:07;8.37;;;5.13;;
12165;SDS011;6146;48.128;11.476;2022-10-31T06:38:32;10.17;;;5.53;;
12165;SDS011;6146;48.128;11.476;2022-10-31T06:41:01;8.27;;;5.60;;
12165;SDS011;6146;48.128;11.476;2022-10-31T06:43:29;9.13;;;5.77;;
12165;SDS011;6146;48.128;11.476;2022-10-31T06:45:54;8.37;;;5.60;;
12165;SDS011;6146;48.128;11.476;2022-10-31T06:48:20;8.70;;;5.43;;
12165;SDS011;6146;48.128;11.476;2022-10-31T06:50:45;7.57;;;5.63;;
12165;SDS011;6146;48.128;11.476;2022-10-31T06:53:11;9.73;;;6.60;;
12165;SDS011;6146;48.128;11.476;2022-10-31T06:55:38;11.90;;;6.37;;
12165;SDS011;6146;48.128;11.476;2022-10-31T06:58:03;10.47;;;6.73;;
12165;SDS011;6146;48.128;11.476;2022-10-31T07:00:29;11.93;;;6.43;;
12165;SDS011;6146;48.128;11.476;2022-10-31T07:05:22;8.77;;;5.10;;
12165;SDS011;6146;48.128;11.476;2022-10-31T07:07:51;9.43;;;4.77;;
12165;SDS011;6146;48.128;11.476;2022-10-31T07:10:20;7.97;;;4.30;;
12165;SDS011;6146;48.128;11.476;2022-10-31T07:12:46;7.17;;;4.20;;
12165;SDS011;6146;48.128;11.476;2022-10-31T07:15:12;10.83;;;4.33;;
12165;SDS011;6146;48.128;11.476;2022-10-31T07:17:38;7.93;;;4.47;;
12165;SDS011;6146;48.128;11.476;2022-10-31T07:20:03;5.77;;;4.40;;
12165;SDS011;6146;48.128;11.476;2022-10-31T07:22:34;9.13;;;4.83;;
12165;SDS011;6146;48.128;11.476;2022-10-31T07:25:01;7.53;;;4.67;;
12165;SDS011;6146;48.128;11.476;2022-10-31T07:27:26;6.23;;;4.00;;
12165;SDS011;6146;48.128;11.476;2022-10-31T07:29:52;6.80;;;4.00;;
12165;SDS011;6146;48.128;11.476;2022-10-31T07:32:17;7.13;;;4.37;;
12165;SDS011;6146;48.128;11.476;2022-10-31T07:34:43;10.27;;;4.20;;
12165;SDS011;6146;48.128;11.476;2022-10-31T07:37:08;9.43;;;4.63;;
12165;SDS011;6146;48.128;11.476;2022-10-31T07:39:34;6.40;;;3.67;;
12165;SDS011;6146;48.128;11.476;2022-10-31T07:41:59;6.90;;;4.07;;
12165;SDS011;6146;48.128;11.476;2022-10-31T07:44:25;8.10;;;4.23;;
12165;SDS011;6146;48.128;11.476;2022-10-31T07:46:51;7.43;;;4.40;;
12165;SDS011;6146;48.128;11.476;2022-10-31T07:49:16;10.47;;;4.47;;
12165;SDS011;6146;48.128;11.476;2022-10-31T07:51:42;10.43;;;4.90;;
12165;SDS011;6146;48.128;11.476;2022-10-31T07:54:07;6.63;;;4.03;;
12165;SDS011;6146;48.128;11.476;2022-10-31T07:56:33;10.43;;;4.70;;
12165;SDS011;6146;48.128;11.476;2022-10-31T07:58:58;8.95;;;4.57;;
12165;SDS011;6146;48.128;11.476;2022-10-31T08:01:24;8.15;;;4.22;;
12165;SDS011;6146;48.128;11.476;2022-10-31T08:03:49;8.35;;;4.22;;
12165;SDS011;6146;48.128;11.476;2022-10-31T08:06:15;9.40;;;4.78;;
12165;SDS011;6146;48.128;11.476;2022-10-31T08:08:40;10.25;;;4.25;;
12165;SDS011;6146;48.128;11.476;2022-10-31T08:11:06;6.22;;;4.53;;
12165;SDS011;6146;48.128;11.476;2022-10-31T08:13:31;7.40;;;4.63;;
12165;SDS011;6146;48.128;11.476;2022-10-31T08:15:57;6.47;;;3.92;;
12165;SDS011;6146;48.128;11.476;2022-10-31T08:18:28;9.95;;;4.60;;
12165;SDS011;6146;48.128;11.476;2022-10-31T08:20:54;7.72;;;3.97;;
12165;SDS011;6146;48.128;11.476;2022-10-31T08:23:20;6.95;;;4.13;;
12165;SDS011;6146;48.128;11.476;2022-10-31T08:25:45;8.88;;;4.88;;
12165;SDS011;6146;48.128;11.476;2022-10-31T08:28:13;7.55;;;4.30;;
12165;SDS011;6146;48.128;11.476;2022-10-31T08:30:39;6.97;;;4.43;;
12165;SDS011;6146;48.128;11.476;2022-10-31T08:33:13;7.80;;;4.80;;
12165;SDS011;6146;48.128;11.476;2022-10-31T08:35:41;6.15;;;4.20;;
12165;SDS011;6146;48.128;11.476;2022-10-31T08:38:08;8.50;;;5.15;;
12165;SDS011;6146;48.128;11.476;2022-10-31T08:40:35;10.48;;;5.45;;
12165;SDS011;6146;48.128;11.476;2022-10-31T08:43:05;5.47;;;4.47;;
12165;SDS011;6146;48.128;11.476;2022-10-31T08:45:36;7.65;;;5.78;;
12165;SDS011;6146;48.128;11.476;2022-10-31T08:48:03;8.85;;;5.07;;
12165;SDS011;6146;48.128;11.476;2022-10-31T08:50:32;6.82;;;4.90;;
12165;SDS011;6146;48.128;11.476;2022-10-31T08:53:00;9.40;;;5.28;;
12165;SDS011;6146;48.128;11.476;2022-10-31T08:55:30;7.40;;;5.40;;
12165;SDS011;6146;48.128;11.476;2022-10-31T08:57:56;10.27;;;5.38;;
12165;SDS011;6146;48.128;11.476;2022-10-31T09:00:23;10.05;;;5.97;;
12165;SDS011;6146;48.128;11.476;2022-10-31T09:02:54;9.68;;;5.88;;
12165;SDS011;6146;48.128;11.476;2022-10-31T09:05:20;13.27;;;6.60;;
12165;SDS011;6146;48.128;11.476;2022-10-31T09:07:46;8.93;;;6.37;;
12165;SDS011;6146;48.128;11.476;2022-10-31T09:10:11;8.37;;;5.30;;
12165;SDS011;6146;48.128;11.476;2022-10-31T09:12:37;10.10;;;5.87;;
12165;SDS011;6146;48.128;11.476;2022-10-31T09:15:02;9.43;;;5.80;;
12165;SDS011;6146;48.128;11.476;2022-10-31T09:17:31;9.02;;;5.60;;
12165;SDS011;6146;48.128;11.476;2022-10-31T09:19:56;9.70;;;5.78;;
12165;SDS011;6146;48.128;11.476;2022-10-31T09:22:22;8.25;;;5.50;;
12165;SDS011;6146;48.128;11.476;2022-10-31T09:24:48;9.88;;;5.55;;
12165;SDS011;6146;48.128;11.476;2022-10-31T09:27:13;8.05;;;5.30;;
12165;SDS011;6146;48.128;11.476;2022-10-31T09:29:39;9.57;;;5.30;;
12165;SDS011;6146;48.128;11.476;2022-10-31T09:32:05;8.57;;;4.85;;
12165;SDS011;6146;48.128;11.476;2022-10-31T09:34:30;7.78;;;5.05;;
12165;SDS011;6146;48.128;11.476;2022-10-31T09:36:56;9.15;;;5.55;;
12165;SDS011;6146;48.128;11.476;2022-10-31T09:39:21;8.50;;;5.55;;
12165;SDS011;6146;48.128;11.476;2022-10-31T09:41:55;9.13;;;5.43;;
12165;SDS011;6146;48.128;11.476;2022-10-31T09:52:36;8.37;;;5.40;;
12165;SDS011;6146;48.128;11.476;2022-10-31T09:55:08;9.23;;;5.93;;
12165;SDS011;6146;48.128;11.476;2022-10-31T09:57:42;10.17;;;5.37;;
12165;SDS011;6146;48.128;11.476;2022-10-31T10:00:14;9.63;;;5.50;;
12165;SDS011;6146;48.128;11.476;2022-10-31T10:02:46;10.10;;;5.40;;
12165;SDS011;6146;48.128;11.476;2022-10-31T10:05:13;10.47;;;4.80;;
12165;SDS011;6146;48.128;11.476;2022-10-31T10:10:48;6.10;;;4.73;;
12165;SDS011;6146;48.128;11.476;2022-10-31T10:23:02;9.27;;;4.00;;
12165;SDS011;6146;48.128;11.476;2022-10-31T10:25:49;8.23;;;4.35;;
12165;SDS011;6146;48.128;11.476;2022-10-31T10:28:33;6.37;;;4.13;;
12165;SDS011;6146;48.128;11.476;2022-10-31T10:31:07;9.63;;;4.07;;
12165;SDS011;6146;48.128;11.476;2022-10-31T10:33:39;9.60;;;3.80;;
12165;SDS011;6146;48.128;11.476;2022-10-31T10:36:14;8.23;;;3.50;;
12165;SDS011;6146;48.128;11.476;2022-10-31T10:38:55;11.47;;;3.50;;
12165;SDS011;6146;48.128;11.476;2022-10-31T10:41:29;7.63;;;3.27;;
12165;SDS011;6146;48.128;11.476;2022-10-31T10:43:57;8.43;;;3.67;;
12165;SDS011;6146;48.128;11.476;2022-10-31T10:49:24;7.17;;;3.77;;
12165;SDS011;6146;48.128;11.476;2022-10-31T10:57:38;5.50;;;3.27;;
12165;SDS011;6146;48.128;11.476;2022-10-31T11:00:26;6.47;;;3.37;;
12165;SDS011;6146;48.128;11.476;2022-10-31T11:02:56;6.93;;;3.37;;
12165;SDS011;6146;48.128;11.476;2022-10-31T11:05:33;6.10;;;3.40;;
12165;SDS011;6146;48.128;11.476;2022-10-31T11:08:02;7.10;;;3.10;;
12165;SDS011;6146;48.128;11.476;2022-10-31T11:10:28;7.03;;;3.53;;
12165;SDS011;6146;48.128;11.476;2022-10-31T11:12:58;4.87;;;2.90;;
12165;SDS011;6146;48.128;11.476;2022-10-31T11:15:39;7.30;;;3.10;;
12165;SDS011;6146;48.128;11.476;2022-10-31T11:18:22;5.43;;;3.20;;
12165;SDS011;6146;48.128;11.476;2022-10-31T11:20:54;7.57;;;2.90;;
12165;SDS011;6146;48.128;11.476;2022-10-31T11:23:22;5.27;;;3.07;;
12165;SDS011;6146;48.128;11.476;2022-10-31T11:28:29;6.17;;;3.33;;
12165;SDS011;6146;48.128;11.476;2022-10-31T11:31:15;6.17;;;3.30;;
12165;SDS011;6146;48.128;11.476;2022-10-31T11:36:14;6.70;;;3.60;;
12165;SDS011;6146;48.128;11.476;2022-10-31T11:38:47;4.80;;;3.10;;
12165;SDS011;6146;48.128;11.476;2022-10-31T11:41:15;8.53;;;3.33;;
12165;SDS011;6146;48.128;11.476;2022-10-31T11:43:53;5.93;;;3.47;;
12165;SDS011;6146;48.128;11.476;2022-10-31T11:46:35;6.13;;;3.40;;
12165;SDS011;6146;48.128;11.476;2022-10-31T11:49:05;6.53;;;3.30;;
12165;SDS011;6146;48.128;11.476;2022-10-31T11:51:40;8.07;;;3.03;;
12165;SDS011;6146;48.128;11.476;2022-10-31T11:54:14;7.27;;;3.10;;
12165;SDS011;6146;48.128;11.476;2022-10-31T11:56:49;5.43;;;2.77;;
12165;SDS011;6146;48.128;11.476;2022-10-31T11:59:22;5.50;;;3.03;;
12165;SDS011;6146;48.128;11.476;2022-10-31T12:01:54;8.77;;;3.27;;
12165;SDS011;6146;48.128;11.476;2022-10-31T12:04:41;8.17;;;2.93;;
12165;SDS011;6146;48.128;11.476;2022-10-31T12:07:10;5.73;;;3.10;;
12165;SDS011;6146;48.128;11.476;2022-10-31T12:09:36;8.27;;;3.40;;
12165;SDS011;6146;48.128;11.476;2022-10-31T12:17:25;8.83;;;3.30;;
12165;SDS011;6146;48.128;11.476;2022-10-31T12:22:47;5.50;;;3.00;;
12165;SDS011;6146;48.128;11.476;2022-10-31T12:25:43;7.13;;;3.03;;
12165;SDS011;6146;48.128;11.476;2022-10-31T12:28:37;8.40;;;3.07;;
12165;SDS011;6146;48.128;11.476;2022-10-31T12:31:11;7.43;;;3.37;;
12165;SDS011;6146;48.128;11.476;2022-10-31T12:36:39;7.97;;;3.40;;
12165;SDS011;6146;48.128;11.476;2022-10-31T12:45:10;5.67;;;3.13;;
12165;SDS011;6146;48.128;11.476;2022-10-31T12:53:43;4.73;;;3.20;;
12165;SDS011;6146;48.128;11.476;2022-10-31T12:56:39;6.73;;;3.30;;
12165;SDS011;6146;48.128;11.476;2022-10-31T13:01:58;5.83;;;2.90;;
12165;SDS011;6146;48.128;11.476;2022-10-31T13:07:05;7.57;;;3.53;;
12165;SDS011;6146;48.128;11.476;2022-10-31T13:09:42;9.63;;;3.53;;
12165;SDS011;6146;48.128;11.476;2022-10-31T13:12:16;8.23;;;3.37;;
12165;SDS011;6146;48.128;11.476;2022-10-31T13:14:48;8.77;;;3.30;;
12165;SDS011;6146;48.128;11.476;2022-10-31T13:17:38;9.67;;;3.73;;
12165;SDS011;6146;48.128;11.476;2022-10-31T13:25:51;6.90;;;3.50;;
12165;SDS011;6146;48.128;11.476;2022-10-31T13:30:51;7.60;;;4.20;;
12165;SDS011;6146;48.128;11.476;2022-10-31T13:33:19;8.40;;;4.53;;
12165;SDS011;6146;48.128;11.476;2022-10-31T13:44:10;6.10;;;3.60;;
12165;SDS011;6146;48.128;11.476;2022-10-31T13:46:40;8.90;;;3.73;;
12165;SDS011;6146;48.128;11.476;2022-10-31T13:49:24;5.27;;;3.47;;
12165;SDS011;6146;48.128;11.476;2022-10-31T13:52:04;8.20;;;4.13;;
12165;SDS011;6146;48.128;11.476;2022-10-31T13:54:43;7.80;;;4.10;;
12165;SDS011;6146;48.128;11.476;2022-10-31T13:57:24;9.67;;;3.93;;
12165;SDS011;6146;48.128;11.476;2022-10-31T14:02:47;9.33;;;4.10;;
12165;SDS011;6146;48.128;11.476;2022-10-31T14:05:31;6.93;;;3.97;;
12165;SDS011;6146;48.128;11.476;2022-10-31T14:07:59;8.17;;;3.97;;
12165;SDS011;6146;48.128;11.476;2022-10-31T14:13:17;8.40;;;3.90;;
12165;SDS011;6146;48.128;11.476;2022-10-31T14:15:52;8.10;;;3.83;;
12165;SDS011;6146;48.128;11.476;2022-10-31T14:18:30;11.87;;;4.53;;
12165;SDS011;6146;48.128;11.476;2022-10-31T14:21:01;7.37;;;5.17;;
12165;SDS011;6146;48.128;11.476;2022-10-31T14:23:50;7.20;;;3.83;;
12165;SDS011;6146;48.128;11.476;2022-10-31T14:26:29;11.73;;;5.83;;
12165;SDS011;6146;48.128;11.476;2022-10-31T14:29:20;9.50;;;4.83;;
12165;SDS011;6146;48.128;11.476;2022-10-31T14:31:50;7.13;;;4.13;;
12165;SDS011;6146;48.128;11.476;2022-10-31T14:34:38;8.50;;;3.83;;
12165;SDS011;6146;48.128;11.476;2022-10-31T14:45:39;9.07;;;5.87;;
12165;SDS011;6146;48.128;11.476;2022-10-31T14:48:32;10.97;;;5.90;;
12165;SDS011;6146;48.128;11.476;2022-10-31T14:50:59;9.03;;;4.60;;
12165;SDS011;6146;48.128;11.476;2022-10-31T14:56:10;9.03;;;4.57;;
12165;SDS011;6146;48.128;11.476;2022-10-31T14:58:43;9.80;;;5.77;;
12165;SDS011;6146;48.128;11.476;2022-10-31T15:01:24;10.80;;;4.67;;
12165;SDS011;6146;48.128;11.476;2022-10-31T15:03:52;10.43;;;4.77;;
12165;SDS011;6146;48.128;11.476;2022-10-31T15:06:27;11.63;;;4.97;;
12165;SDS011;6146;48.128;11.476;2022-10-31T15:09:00;7.60;;;4.77;;
12165;SDS011;6146;48.128;11.476;2022-10-31T15:11:26;9.90;;;5.17;;
12165;SDS011;6146;48.128;11.476;2022-10-31T15:13:56;10.00;;;5.27;;
12165;SDS011;6146;48.128;11.476;2022-10-31T15:16:23;9.43;;;4.40;;
12165;SDS011;6146;48.128;11.476;2022-10-31T15:21:17;8.33;;;4.87;;
12165;SDS011;6146;48.128;11.476;2022-10-31T15:23:46;10.57;;;4.80;;
12165;SDS011;6146;48.128;11.476;2022-10-31T15:26:18;10.03;;;5.73;;
12165;SDS011;6146;48.128;11.476;2022-10-31T15:28:46;8.47;;;5.00;;
12165;SDS011;6146;48.128;11.476;2022-10-31T15:31:23;10.33;;;5.00;;
12165;SDS011;6146;48.128;11.476;2022-10-31T15:33:48;11.37;;;6.40;;
12165;SDS011;6146;48.128;11.476;2022-10-31T15:36:19;13.13;;;8.87;;
12165;SDS011;6146;48.128;11.476;2022-10-31T15:38:46;9.13;;;5.93;;
12165;SDS011;6146;48.128;11.476;2022-10-31T15:41:21;8.73;;;5.13;;
12165;SDS011;6146;48.128;11.476;2022-10-31T15:44:14;9.47;;;7.33;;
12165;SDS011;6146;48.128;11.476;2022-10-31T15:46:44;10.43;;;6.97;;
12165;SDS011;6146;48.128;11.476;2022-10-31T15:52:14;12.17;;;6.87;;
12165;SDS011;6146;48.128;11.476;2022-10-31T15:55:00;13.83;;;8.33;;
12165;SDS011;6146;48.128;11.476;2022-10-31T15:57:28;11.87;;;5.53;;
12165;SDS011;6146;48.128;11.476;2022-10-31T15:59:55;10.80;;;5.83;;
12165;SDS011;6146;48.128;11.476;2022-10-31T16:02:22;10.97;;;7.00;;
12165;SDS011;6146;48.128;11.476;2022-10-31T16:07:20;9.63;;;6.53;;
12165;SDS011;6146;48.128;11.476;2022-10-31T16:09:53;8.93;;;6.30;;
12165;SDS011;6146;48.128;11.476;2022-10-31T16:12:19;11.10;;;6.47;;
12165;SDS011;6146;48.128;11.476;2022-10-31T16:14:45;13.80;;;6.67;;
12165;SDS011;6146;48.128;11.476;2022-10-31T16:17:15;10.10;;;6.17;;
12165;SDS011;6146;48.128;11.476;2022-10-31T16:19:58;11.03;;;7.07;;
12165;SDS011;6146;48.128;11.476;2022-10-31T16:27:39;8.80;;;5.93;;
12165;SDS011;6146;48.128;11.476;2022-10-31T16:33:02;11.37;;;6.73;;
12165;SDS011;6146;48.128;11.476;2022-10-31T16:35:32;12.30;;;6.47;;
12165;SDS011;6146;48.128;11.476;2022-10-31T16:38:00;9.17;;;5.67;;
12165;SDS011;6146;48.128;11.476;2022-10-31T16:40:25;11.30;;;6.33;;
12165;SDS011;6146;48.128;11.476;2022-10-31T16:42:51;9.43;;;6.30;;
12165;SDS011;6146;48.128;11.476;2022-10-31T16:45:18;12.60;;;7.40;;
12165;SDS011;6146;48.128;11.476;2022-10-31T16:47:46;13.93;;;6.90;;
12165;SDS011;6146;48.128;11.476;2022-10-31T16:50:14;9.83;;;6.80;;
12165;SDS011;6146;48.128;11.476;2022-10-31T16:52:45;12.07;;;7.30;;
12165;SDS011;6146;48.128;11.476;2022-10-31T16:55:15;13.73;;;7.27;;
12165;SDS011;6146;48.128;11.476;2022-10-31T16:57:44;9.60;;;7.03;;
12165;SDS011;6146;48.128;11.476;2022-10-31T17:00:16;14.00;;;8.00;;
12165;SDS011;6146;48.128;11.476;2022-10-31T17:02:46;13.90;;;7.63;;
12165;SDS011;6146;48.128;11.476;2022-10-31T17:05:14;13.00;;;7.80;;
12165;SDS011;6146;48.128;11.476;2022-10-31T17:07:41;14.90;;;8.20;;
12165;SDS011;6146;48.128;11.476;2022-10-31T17:10:07;13.33;;;7.17;;
12165;SDS011;6146;48.128;11.476;2022-10-31T17:12:34;14.13;;;8.53;;
12165;SDS011;6146;48.128;11.476;2022-10-31T17:14:59;12.27;;;7.67;;
12165;SDS011;6146;48.128;11.476;2022-10-31T17:17:25;11.23;;;7.67;;
12165;SDS011;6146;48.128;11.476;2022-10-31T17:19:51;13.57;;;8.57;;
12165;SDS011;6146;48.128;11.476;2022-10-31T17:22:16;13.53;;;10.43;;
12165;SDS011;6146;48.128;11.476;2022-10-31T17:24:42;14.20;;;8.30;;
12165;SDS011;6146;48.128;11.476;2022-10-31T17:27:08;13.83;;;8.97;;
12165;SDS011;6146;48.128;11.476;2022-10-31T17:29:33;19.70;;;9.10;;
12165;SDS011;6146;48.128;11.476;2022-10-31T17:31:59;11.23;;;8.10;;